Otter Rock, Oregon
Current Conditions -  °F | °C
As of 1:15 AM on Thursday 27 Nov 2014 (Local Time) from KONP Reporting Station
Moderate Rain Moderate Rain  
Wind Chill: 55°   Ceiling: 900
Heat Index: 55°   Visibility: 2.5mi
Dew Point: 55°   Wind: 26mph
Humidity: 100%   Direction: 180°S
Pressure: 30.01"   Gusts: 36mph
Location:  44.75°N, 124.06°W
Report Text: KONP 270915Z AUTO 18023G31KT 2 1/2SM RA BKN009 OVC013 13/13 A3001 RMK AO2 P0004
Loading
Personal Weather Stations






























Interactive Weather Map New forecast layout! Learn more

10-Day Weather Forecast

Advertisements
Track Severe Weather on mobile